sensor_id;sensor_type;location;lat;lon;timestamp;temperature;humidity
4556;DHT22;2290;48.674;9.018;2023-07-31T00:01:02;17.00;99.90
4556;DHT22;2290;48.674;9.018;2023-07-31T00:03:27;17.00;99.90
4556;DHT22;2290;48.674;9.018;2023-07-31T00:05:53;16.90;99.90
4556;DHT22;2290;48.674;9.018;2023-07-31T00:08:18;16.90;99.90
4556;DHT22;2290;48.674;9.018;2023-07-31T00:10:44;16.90;99.90
4556;DHT22;2290;48.674;9.018;2023-07-31T00:13:09;16.90;99.90
4556;DHT22;2290;48.674;9.018;2023-07-31T00:15:35;16.90;99.90
4556;DHT22;2290;48.674;9.018;2023-07-31T00:18:00;16.90;99.90
4556;DHT22;2290;48.674;9.018;2023-07-31T00:20:26;16.90;99.90
4556;DHT22;2290;48.674;9.018;2023-07-31T00:22:52;16.80;99.90
4556;DHT22;2290;48.674;9.018;2023-07-31T00:25:17;16.80;99.90
4556;DHT22;2290;48.674;9.018;2023-07-31T00:27:43;16.80;99.90
4556;DHT22;2290;48.674;9.018;2023-07-31T00:30:10;16.70;99.90
4556;DHT22;2290;48.674;9.018;2023-07-31T00:32:36;16.60;99.90
4556;DHT22;2290;48.674;9.018;2023-07-31T00:35:01;16.60;99.90
4556;DHT22;2290;48.674;9.018;2023-07-31T00:37:27;16.60;99.90
4556;DHT22;2290;48.674;9.018;2023-07-31T00:39:53;16.60;99.90
4556;DHT22;2290;48.674;9.018;2023-07-31T00:42:18;16.60;99.90
4556;DHT22;2290;48.674;9.018;2023-07-31T00:44:44;16.50;99.90
4556;DHT22;2290;48.674;9.018;2023-07-31T00:47:09;16.40;99.90
4556;DHT22;2290;48.674;9.018;2023-07-31T00:49:35;16.50;99.90
4556;DHT22;2290;48.674;9.018;2023-07-31T00:52:00;16.40;99.90
4556;DHT22;2290;48.674;9.018;2023-07-31T00:54:27;16.40;99.90
4556;DHT22;2290;48.674;9.018;2023-07-31T00:56:54;16.30;99.90
4556;DHT22;2290;48.674;9.018;2023-07-31T00:59:20;16.30;99.90
4556;DHT22;2290;48.674;9.018;2023-07-31T01:01:46;16.20;99.90
4556;DHT22;2290;48.674;9.018;2023-07-31T01:04:12;16.20;99.90
4556;DHT22;2290;48.674;9.018;2023-07-31T01:07:10;16.10;99.90
4556;DHT22;2290;48.674;9.018;2023-07-31T01:12:31;16.10;99.90
4556;DHT22;2290;48.674;9.018;2023-07-31T01:15:08;16.00;99.90
4556;DHT22;2290;48.674;9.018;2023-07-31T01:17:41;15.90;99.90
4556;DHT22;2290;48.674;9.018;2023-07-31T01:20:21;15.80;99.90
4556;DHT22;2290;48.674;9.018;2023-07-31T01:26:12;15.90;99.90
4556;DHT22;2290;48.674;9.018;2023-07-31T01:31:08;15.70;99.90
4556;DHT22;2290;48.674;9.018;2023-07-31T01:33:35;15.80;99.90
4556;DHT22;2290;48.674;9.018;2023-07-31T01:36:02;15.80;99.90
4556;DHT22;2290;48.674;9.018;2023-07-31T01:38:28;15.80;99.90
4556;DHT22;2290;48.674;9.018;2023-07-31T01:40:54;15.70;99.90
4556;DHT22;2290;48.674;9.018;2023-07-31T01:43:20;15.60;99.90
4556;DHT22;2290;48.674;9.018;2023-07-31T01:45:46;15.50;99.90
4556;DHT22;2290;48.674;9.018;2023-07-31T01:48:11;15.60;99.90
4556;DHT22;2290;48.674;9.018;2023-07-31T01:50:37;15.70;99.90
4556;DHT22;2290;48.674;9.018;2023-07-31T01:53:02;15.80;99.90
4556;DHT22;2290;48.674;9.018;2023-07-31T01:55:28;15.80;99.90
4556;DHT22;2290;48.674;9.018;2023-07-31T01:57:53;15.70;99.90
4556;DHT22;2290;48.674;9.018;2023-07-31T02:00:19;15.80;99.90
4556;DHT22;2290;48.674;9.018;2023-07-31T02:02:44;15.80;99.90
4556;DHT22;2290;48.674;9.018;2023-07-31T02:05:10;15.80;99.90
4556;DHT22;2290;48.674;9.018;2023-07-31T02:07:36;15.70;99.90
4556;DHT22;2290;48.674;9.018;2023-07-31T02:10:01;15.70;99.90
4556;DHT22;2290;48.674;9.018;2023-07-31T02:12:27;15.70;99.90
4556;DHT22;2290;48.674;9.018;2023-07-31T02:14:55;15.60;99.90
4556;DHT22;2290;48.674;9.018;2023-07-31T02:17:21;15.50;99.90
4556;DHT22;2290;48.674;9.018;2023-07-31T02:19:46;15.50;99.90
4556;DHT22;2290;48.674;9.018;2023-07-31T02:22:12;15.40;99.90
4556;DHT22;2290;48.674;9.018;2023-07-31T02:24:38;15.40;99.90
4556;DHT22;2290;48.674;9.018;2023-07-31T02:27:03;15.30;99.90
4556;DHT22;2290;48.674;9.018;2023-07-31T02:29:29;15.40;99.90
4556;DHT22;2290;48.674;9.018;2023-07-31T02:31:54;15.40;99.90
4556;DHT22;2290;48.674;9.018;2023-07-31T02:34:20;15.30;99.90
4556;DHT22;2290;48.674;9.018;2023-07-31T02:36:45;15.30;99.90
4556;DHT22;2290;48.674;9.018;2023-07-31T02:39:11;15.30;99.90
4556;DHT22;2290;48.674;9.018;2023-07-31T02:41:37;15.30;99.90
4556;DHT22;2290;48.674;9.018;2023-07-31T02:44:02;15.30;99.90
4556;DHT22;2290;48.674;9.018;2023-07-31T02:46:28;15.40;99.90
4556;DHT22;2290;48.674;9.018;2023-07-31T02:48:53;15.30;99.90
4556;DHT22;2290;48.674;9.018;2023-07-31T02:51:19;15.20;99.90
4556;DHT22;2290;48.674;9.018;2023-07-31T02:53:47;15.20;99.90
4556;DHT22;2290;48.674;9.018;2023-07-31T02:56:13;15.20;99.90
4556;DHT22;2290;48.674;9.018;2023-07-31T02:58:38;15.20;99.90
4556;DHT22;2290;48.674;9.018;2023-07-31T03:01:04;15.20;99.90
4556;DHT22;2290;48.674;9.018;2023-07-31T03:03:29;15.20;99.90
4556;DHT22;2290;48.674;9.018;2023-07-31T03:05:55;15.30;99.90
4556;DHT22;2290;48.674;9.018;2023-07-31T03:08:21;15.30;99.90
4556;DHT22;2290;48.674;9.018;2023-07-31T03:10:46;15.30;99.90
4556;DHT22;2290;48.674;9.018;2023-07-31T03:13:12;15.30;99.90
4556;DHT22;2290;48.674;9.018;2023-07-31T03:15:37;15.30;99.90
4556;DHT22;2290;48.674;9.018;2023-07-31T03:18:03;15.30;99.90
4556;DHT22;2290;48.674;9.018;2023-07-31T03:20:28;15.30;99.90
4556;DHT22;2290;48.674;9.018;2023-07-31T03:22:54;15.30;99.90
4556;DHT22;2290;48.674;9.018;2023-07-31T03:25:19;15.30;99.90
4556;DHT22;2290;48.674;9.018;2023-07-31T03:27:45;15.30;99.90
4556;DHT22;2290;48.674;9.018;2023-07-31T03:30:10;15.30;99.90
4556;DHT22;2290;48.674;9.018;2023-07-31T03:32:36;15.30;99.90
4556;DHT22;2290;48.674;9.018;2023-07-31T03:35:02;15.30;99.90
4556;DHT22;2290;48.674;9.018;2023-07-31T03:37:27;15.40;99.90
4556;DHT22;2290;48.674;9.018;2023-07-31T03:39:53;15.40;99.90
4556;DHT22;2290;48.674;9.018;2023-07-31T03:42:19;15.30;99.90
4556;DHT22;2290;48.674;9.018;2023-07-31T03:44:44;15.30;99.90
4556;DHT22;2290;48.674;9.018;2023-07-31T03:47:11;15.30;99.90
4556;DHT22;2290;48.674;9.018;2023-07-31T03:49:36;15.30;99.90
4556;DHT22;2290;48.674;9.018;2023-07-31T03:52:02;15.40;99.90
4556;DHT22;2290;48.674;9.018;2023-07-31T03:54:28;15.40;99.90
4556;DHT22;2290;48.674;9.018;2023-07-31T03:56:53;15.40;99.90
4556;DHT22;2290;48.674;9.018;2023-07-31T03:59:19;15.40;99.90
4556;DHT22;2290;48.674;9.018;2023-07-31T04:01:44;15.40;99.90
4556;DHT22;2290;48.674;9.018;2023-07-31T04:04:10;15.40;99.90
4556;DHT22;2290;48.674;9.018;2023-07-31T04:06:35;15.50;99.90
4556;DHT22;2290;48.674;9.018;2023-07-31T04:09:02;15.60;99.90
4556;DHT22;2290;48.674;9.018;2023-07-31T04:11:28;15.50;99.90
4556;DHT22;2290;48.674;9.018;2023-07-31T04:13:53;15.50;99.90
4556;DHT22;2290;48.674;9.018;2023-07-31T04:16:19;15.60;99.90
4556;DHT22;2290;48.674;9.018;2023-07-31T04:18:45;15.60;99.90
4556;DHT22;2290;48.674;9.018;2023-07-31T04:21:10;15.60;99.90
4556;DHT22;2290;48.674;9.018;2023-07-31T04:23:36;15.60;99.90
4556;DHT22;2290;48.674;9.018;2023-07-31T04:26:01;15.60;99.90
4556;DHT22;2290;48.674;9.018;2023-07-31T04:28:27;15.80;99.90
4556;DHT22;2290;48.674;9.018;2023-07-31T04:30:52;15.80;99.90
4556;DHT22;2290;48.674;9.018;2023-07-31T04:33:18;15.90;99.90
4556;DHT22;2290;48.674;9.018;2023-07-31T04:35:53;16.00;99.90
4556;DHT22;2290;48.674;9.018;2023-07-31T04:38:19;15.90;99.90
4556;DHT22;2290;48.674;9.018;2023-07-31T04:40:45;16.00;99.90
4556;DHT22;2290;48.674;9.018;2023-07-31T04:43:11;16.00;99.90
4556;DHT22;2290;48.674;9.018;2023-07-31T04:45:37;16.00;99.90
4556;DHT22;2290;48.674;9.018;2023-07-31T04:48:02;16.00;99.90
4556;DHT22;2290;48.674;9.018;2023-07-31T04:50:28;16.00;99.90
4556;DHT22;2290;48.674;9.018;2023-07-31T04:52:55;15.90;99.90
4556;DHT22;2290;48.674;9.018;2023-07-31T04:55:21;16.00;99.90
4556;DHT22;2290;48.674;9.018;2023-07-31T04:57:46;16.00;99.90
4556;DHT22;2290;48.674;9.018;2023-07-31T05:00:12;16.00;99.90
4556;DHT22;2290;48.674;9.018;2023-07-31T05:02:37;16.00;99.90
4556;DHT22;2290;48.674;9.018;2023-07-31T05:05:03;16.10;99.90
4556;DHT22;2290;48.674;9.018;2023-07-31T05:07:29;16.10;99.90
4556;DHT22;2290;48.674;9.018;2023-07-31T05:09:54;16.10;99.90
4556;DHT22;2290;48.674;9.018;2023-07-31T05:12:20;16.10;99.90
4556;DHT22;2290;48.674;9.018;2023-07-31T05:14:45;16.20;99.90
4556;DHT22;2290;48.674;9.018;2023-07-31T05:17:11;16.20;99.90
4556;DHT22;2290;48.674;9.018;2023-07-31T05:19:37;16.20;99.90
4556;DHT22;2290;48.674;9.018;2023-07-31T05:22:02;16.20;99.90
4556;DHT22;2290;48.674;9.018;2023-07-31T05:24:28;16.20;99.90
4556;DHT22;2290;48.674;9.018;2023-07-31T05:26:55;16.30;99.90
4556;DHT22;2290;48.674;9.018;2023-07-31T05:29:20;16.30;99.90
4556;DHT22;2290;48.674;9.018;2023-07-31T05:31:46;16.20;99.90
4556;DHT22;2290;48.674;9.018;2023-07-31T05:34:12;16.30;99.90
4556;DHT22;2290;48.674;9.018;2023-07-31T05:36:37;16.20;99.90
4556;DHT22;2290;48.674;9.018;2023-07-31T05:39:03;16.30;99.90
4556;DHT22;2290;48.674;9.018;2023-07-31T05:41:32;16.40;99.90
4556;DHT22;2290;48.674;9.018;2023-07-31T05:43:57;16.40;99.90
4556;DHT22;2290;48.674;9.018;2023-07-31T05:46:23;16.40;99.90
4556;DHT22;2290;48.674;9.018;2023-07-31T05:48:48;16.50;99.90
4556;DHT22;2290;48.674;9.018;2023-07-31T05:51:14;16.50;99.90
4556;DHT22;2290;48.674;9.018;2023-07-31T05:53:40;16.50;99.90
4556;DHT22;2290;48.674;9.018;2023-07-31T05:56:06;16.60;99.90
4556;DHT22;2290;48.674;9.018;2023-07-31T05:58:32;16.60;99.90
4556;DHT22;2290;48.674;9.018;2023-07-31T06:00:57;16.70;99.90
4556;DHT22;2290;48.674;9.018;2023-07-31T06:03:23;16.70;99.90
4556;DHT22;2290;48.674;9.018;2023-07-31T06:05:48;16.70;99.90
4556;DHT22;2290;48.674;9.018;2023-07-31T06:08:14;16.80;99.90
4556;DHT22;2290;48.674;9.018;2023-07-31T06:10:39;16.90;99.90
4556;DHT22;2290;48.674;9.018;2023-07-31T06:13:05;16.90;99.90
4556;DHT22;2290;48.674;9.018;2023-07-31T06:15:31;17.00;99.90
4556;DHT22;2290;48.674;9.018;2023-07-31T06:17:56;16.90;99.90
4556;DHT22;2290;48.674;9.018;2023-07-31T06:20:22;17.00;99.90
4556;DHT22;2290;48.674;9.018;2023-07-31T06:22:48;17.10;99.90
4556;DHT22;2290;48.674;9.018;2023-07-31T06:25:13;17.10;99.90
4556;DHT22;2290;48.674;9.018;2023-07-31T06:27:39;17.10;99.90
4556;DHT22;2290;48.674;9.018;2023-07-31T06:30:05;17.10;99.90
4556;DHT22;2290;48.674;9.018;2023-07-31T06:32:31;17.10;99.90
4556;DHT22;2290;48.674;9.018;2023-07-31T06:34:56;17.20;99.90
4556;DHT22;2290;48.674;9.018;2023-07-31T06:37:22;17.10;99.90
4556;DHT22;2290;48.674;9.018;2023-07-31T06:39:48;17.20;99.90
4556;DHT22;2290;48.674;9.018;2023-07-31T06:42:13;17.20;99.90
4556;DHT22;2290;48.674;9.018;2023-07-31T06:44:39;17.20;99.90
4556;DHT22;2290;48.674;9.018;2023-07-31T06:47:05;17.20;99.90
4556;DHT22;2290;48.674;9.018;2023-07-31T06:49:30;17.10;99.90
4556;DHT22;2290;48.674;9.018;2023-07-31T06:51:56;17.20;99.90
4556;DHT22;2290;48.674;9.018;2023-07-31T06:54:23;17.20;99.90
4556;DHT22;2290;48.674;9.018;2023-07-31T06:56:50;17.40;99.90
4556;DHT22;2290;48.674;9.018;2023-07-31T06:59:16;17.40;99.90
4556;DHT22;2290;48.674;9.018;2023-07-31T07:01:41;17.60;99.90
4556;DHT22;2290;48.674;9.018;2023-07-31T07:04:07;17.70;99.90
4556;DHT22;2290;48.674;9.018;2023-07-31T07:06:33;17.70;99.90
4556;DHT22;2290;48.674;9.018;2023-07-31T07:09:00;17.80;99.90
4556;DHT22;2290;48.674;9.018;2023-07-31T07:11:25;17.80;99.90
4556;DHT22;2290;48.674;9.018;2023-07-31T07:13:51;17.90;99.90
4556;DHT22;2290;48.674;9.018;2023-07-31T07:16:18;17.90;99.90
4556;DHT22;2290;48.674;9.018;2023-07-31T07:18:46;18.10;99.90
4556;DHT22;2290;48.674;9.018;2023-07-31T07:21:12;18.20;99.90
4556;DHT22;2290;48.674;9.018;2023-07-31T07:23:41;18.20;99.90
4556;DHT22;2290;48.674;9.018;2023-07-31T07:26:07;18.20;99.90
4556;DHT22;2290;48.674;9.018;2023-07-31T07:28:32;18.20;99.90
4556;DHT22;2290;48.674;9.018;2023-07-31T07:30:59;18.30;99.90
4556;DHT22;2290;48.674;9.018;2023-07-31T07:33:25;18.20;99.90
4556;DHT22;2290;48.674;9.018;2023-07-31T07:35:50;18.30;99.90
4556;DHT22;2290;48.674;9.018;2023-07-31T07:38:16;18.20;99.90
4556;DHT22;2290;48.674;9.018;2023-07-31T07:40:41;18.20;99.90
4556;DHT22;2290;48.674;9.018;2023-07-31T07:43:08;18.30;99.90
4556;DHT22;2290;48.674;9.018;2023-07-31T07:45:33;18.30;99.90
4556;DHT22;2290;48.674;9.018;2023-07-31T07:47:59;18.30;99.90
4556;DHT22;2290;48.674;9.018;2023-07-31T07:50:50;18.40;99.90
4556;DHT22;2290;48.674;9.018;2023-07-31T07:53:16;18.40;99.90
4556;DHT22;2290;48.674;9.018;2023-07-31T07:55:42;18.40;99.90
4556;DHT22;2290;48.674;9.018;2023-07-31T07:58:08;18.40;99.90
4556;DHT22;2290;48.674;9.018;2023-07-31T08:00:33;18.40;99.90
4556;DHT22;2290;48.674;9.018;2023-07-31T08:02:59;18.60;99.90
4556;DHT22;2290;48.674;9.018;2023-07-31T08:05:24;18.90;99.90
4556;DHT22;2290;48.674;9.018;2023-07-31T08:07:50;19.00;99.90
4556;DHT22;2290;48.674;9.018;2023-07-31T08:10:16;18.90;99.90
4556;DHT22;2290;48.674;9.018;2023-07-31T08:12:41;19.00;99.90
4556;DHT22;2290;48.674;9.018;2023-07-31T08:15:07;18.90;99.90
4556;DHT22;2290;48.674;9.018;2023-07-31T08:17:33;19.00;99.90
4556;DHT22;2290;48.674;9.018;2023-07-31T08:19:58;19.10;99.90
4556;DHT22;2290;48.674;9.018;2023-07-31T08:22:24;19.20;99.90
4556;DHT22;2290;48.674;9.018;2023-07-31T08:24:50;19.20;99.90
4556;DHT22;2290;48.674;9.018;2023-07-31T08:27:16;19.20;99.90
4556;DHT22;2290;48.674;9.018;2023-07-31T08:29:41;19.30;99.90
4556;DHT22;2290;48.674;9.018;2023-07-31T08:32:07;19.50;99.90
4556;DHT22;2290;48.674;9.018;2023-07-31T08:34:32;19.60;99.90
4556;DHT22;2290;48.674;9.018;2023-07-31T08:36:58;19.70;99.90
4556;DHT22;2290;48.674;9.018;2023-07-31T08:39:23;19.80;99.90
4556;DHT22;2290;48.674;9.018;2023-07-31T08:41:49;19.80;99.90
4556;DHT22;2290;48.674;9.018;2023-07-31T08:44:15;19.80;99.90
4556;DHT22;2290;48.674;9.018;2023-07-31T08:46:42;19.60;99.90
4556;DHT22;2290;48.674;9.018;2023-07-31T08:49:09;19.60;99.90
4556;DHT22;2290;48.674;9.018;2023-07-31T08:51:36;19.70;99.90
4556;DHT22;2290;48.674;9.018;2023-07-31T08:54:02;19.60;99.90
4556;DHT22;2290;48.674;9.018;2023-07-31T08:56:32;19.50;99.90
4556;DHT22;2290;48.674;9.018;2023-07-31T08:59:00;19.40;99.90
4556;DHT22;2290;48.674;9.018;2023-07-31T09:01:29;19.30;99.90
4556;DHT22;2290;48.674;9.018;2023-07-31T09:03:57;19.30;99.90
4556;DHT22;2290;48.674;9.018;2023-07-31T09:06:25;19.40;99.90
4556;DHT22;2290;48.674;9.018;2023-07-31T09:08:52;19.50;99.90
4556;DHT22;2290;48.674;9.018;2023-07-31T09:11:18;19.60;99.90
4556;DHT22;2290;48.674;9.018;2023-07-31T09:13:45;19.70;99.90
4556;DHT22;2290;48.674;9.018;2023-07-31T09:16:11;19.80;99.90
4556;DHT22;2290;48.674;9.018;2023-07-31T09:18:56;19.80;99.90
4556;DHT22;2290;48.674;9.018;2023-07-31T09:21:23;20.00;99.90
4556;DHT22;2290;48.674;9.018;2023-07-31T09:23:49;20.10;99.90
4556;DHT22;2290;48.674;9.018;2023-07-31T09:26:37;20.00;99.90
4556;DHT22;2290;48.674;9.018;2023-07-31T09:29:07;19.90;99.90
4556;DHT22;2290;48.674;9.018;2023-07-31T09:31:43;20.00;99.90
4556;DHT22;2290;48.674;9.018;2023-07-31T09:34:09;19.90;99.90
4556;DHT22;2290;48.674;9.018;2023-07-31T09:36:51;19.80;99.90
4556;DHT22;2290;48.674;9.018;2023-07-31T09:39:19;19.90;99.90
4556;DHT22;2290;48.674;9.018;2023-07-31T09:41:48;20.00;99.90
4556;DHT22;2290;48.674;9.018;2023-07-31T09:44:18;20.20;99.90
4556;DHT22;2290;48.674;9.018;2023-07-31T09:46:44;20.30;99.90
4556;DHT22;2290;48.674;9.018;2023-07-31T09:49:12;20.30;99.90
4556;DHT22;2290;48.674;9.018;2023-07-31T09:51:39;20.20;99.90
4556;DHT22;2290;48.674;9.018;2023-07-31T09:54:15;20.30;99.90
4556;DHT22;2290;48.674;9.018;2023-07-31T09:59:11;20.50;99.90
4556;DHT22;2290;48.674;9.018;2023-07-31T10:01:38;20.60;99.90
4556;DHT22;2290;48.674;9.018;2023-07-31T10:04:05;20.70;99.90
4556;DHT22;2290;48.674;9.018;2023-07-31T10:06:33;20.90;99.90
4556;DHT22;2290;48.674;9.018;2023-07-31T10:09:00;21.00;99.90
4556;DHT22;2290;48.674;9.018;2023-07-31T10:11:27;21.10;99.90
4556;DHT22;2290;48.674;9.018;2023-07-31T10:13:55;21.20;99.90
4556;DHT22;2290;48.674;9.018;2023-07-31T10:16:21;21.20;99.90
4556;DHT22;2290;48.674;9.018;2023-07-31T10:18:47;21.30;99.90
4556;DHT22;2290;48.674;9.018;2023-07-31T10:21:14;21.40;99.90
4556;DHT22;2290;48.674;9.018;2023-07-31T10:23:40;21.40;99.90
4556;DHT22;2290;48.674;9.018;2023-07-31T10:26:08;21.30;99.90
4556;DHT22;2290;48.674;9.018;2023-07-31T10:28:34;21.30;99.90
4556;DHT22;2290;48.674;9.018;2023-07-31T10:31:03;21.40;99.90
4556;DHT22;2290;48.674;9.018;2023-07-31T10:33:29;21.70;99.90
4556;DHT22;2290;48.674;9.018;2023-07-31T10:36:28;22.00;99.90
4556;DHT22;2290;48.674;9.018;2023-07-31T10:38:55;22.10;99.90
4556;DHT22;2290;48.674;9.018;2023-07-31T10:41:29;22.10;99.90
4556;DHT22;2290;48.674;9.018;2023-07-31T10:44:00;22.20;99.90
4556;DHT22;2290;48.674;9.018;2023-07-31T10:46:27;22.10;99.90
4556;DHT22;2290;48.674;9.018;2023-07-31T10:49:01;21.80;99.90
4556;DHT22;2290;48.674;9.018;2023-07-31T10:51:36;21.60;99.90
4556;DHT22;2290;48.674;9.018;2023-07-31T10:54:15;21.60;99.90
4556;DHT22;2290;48.674;9.018;2023-07-31T10:56:46;21.70;99.90
4556;DHT22;2290;48.674;9.018;2023-07-31T10:59:13;21.70;99.90
4556;DHT22;2290;48.674;9.018;2023-07-31T11:01:56;21.70;99.90
4556;DHT22;2290;48.674;9.018;2023-07-31T11:04:28;21.70;99.90
4556;DHT22;2290;48.674;9.018;2023-07-31T11:07:01;21.60;99.90
4556;DHT22;2290;48.674;9.018;2023-07-31T11:09:29;21.50;99.90
4556;DHT22;2290;48.674;9.018;2023-07-31T11:11:56;21.50;99.90
4556;DHT22;2290;48.674;9.018;2023-07-31T11:14:22;21.50;99.90
4556;DHT22;2290;48.674;9.018;2023-07-31T11:16:50;21.50;99.90
4556;DHT22;2290;48.674;9.018;2023-07-31T11:19:26;21.70;99.90
4556;DHT22;2290;48.674;9.018;2023-07-31T11:21:53;21.70;99.90
4556;DHT22;2290;48.674;9.018;2023-07-31T11:24:18;21.50;99.90
4556;DHT22;2290;48.674;9.018;2023-07-31T11:26:51;21.50;99.90
4556;DHT22;2290;48.674;9.018;2023-07-31T11:29:18;21.30;99.90
4556;DHT22;2290;48.674;9.018;2023-07-31T11:31:44;21.30;99.90
4556;DHT22;2290;48.674;9.018;2023-07-31T11:34:10;21.30;99.90
4556;DHT22;2290;48.674;9.018;2023-07-31T11:36:36;21.30;99.90
4556;DHT22;2290;48.674;9.018;2023-07-31T11:39:09;21.20;99.90
4556;DHT22;2290;48.674;9.018;2023-07-31T11:41:34;21.20;99.90
4556;DHT22;2290;48.674;9.018;2023-07-31T11:44:00;21.30;99.90
4556;DHT22;2290;48.674;9.018;2023-07-31T11:46:26;21.20;99.90
4556;DHT22;2290;48.674;9.018;2023-07-31T11:48:52;21.20;99.90
4556;DHT22;2290;48.674;9.018;2023-07-31T11:51:24;21.20;99.90
4556;DHT22;2290;48.674;9.018;2023-07-31T11:54:01;21.20;99.90
4556;DHT22;2290;48.674;9.018;2023-07-31T11:56:28;21.20;99.90
4556;DHT22;2290;48.674;9.018;2023-07-31T11:58:59;21.30;99.90
4556;DHT22;2290;48.674;9.018;2023-07-31T12:01:26;21.40;99.90
4556;DHT22;2290;48.674;9.018;2023-07-31T12:03:53;21.40;99.90
4556;DHT22;2290;48.674;9.018;2023-07-31T12:06:20;21.60;99.90
4556;DHT22;2290;48.674;9.018;2023-07-31T12:08:46;21.70;99.90
4556;DHT22;2290;48.674;9.018;2023-07-31T12:11:12;21.50;99.90
4556;DHT22;2290;48.674;9.018;2023-07-31T12:13:40;21.50;99.90
4556;DHT22;2290;48.674;9.018;2023-07-31T12:16:06;21.40;99.90
4556;DHT22;2290;48.674;9.018;2023-07-31T12:18:39;21.50;99.90
4556;DHT22;2290;48.674;9.018;2023-07-31T12:21:06;21.50;99.90
4556;DHT22;2290;48.674;9.018;2023-07-31T12:23:34;21.50;99.90
4556;DHT22;2290;48.674;9.018;2023-07-31T12:28:29;21.30;99.90
4556;DHT22;2290;48.674;9.018;2023-07-31T12:30:59;21.40;99.90
4556;DHT22;2290;48.674;9.018;2023-07-31T12:33:31;21.40;99.90
4556;DHT22;2290;48.674;9.018;2023-07-31T12:35:58;21.40;99.90
4556;DHT22;2290;48.674;9.018;2023-07-31T12:38:23;21.50;99.90
4556;DHT22;2290;48.674;9.018;2023-07-31T12:40:49;21.50;99.90
4556;DHT22;2290;48.674;9.018;2023-07-31T12:43:15;21.70;99.90
4556;DHT22;2290;48.674;9.018;2023-07-31T12:45:41;21.90;99.90
4556;DHT22;2290;48.674;9.018;2023-07-31T12:48:06;22.10;99.90
4556;DHT22;2290;48.674;9.018;2023-07-31T12:50:32;22.30;99.90
4556;DHT22;2290;48.674;9.018;2023-07-31T12:52:58;22.50;99.90
4556;DHT22;2290;48.674;9.018;2023-07-31T12:55:23;22.50;99.90
4556;DHT22;2290;48.674;9.018;2023-07-31T12:57:50;22.70;99.90
4556;DHT22;2290;48.674;9.018;2023-07-31T13:00:16;22.80;99.90
4556;DHT22;2290;48.674;9.018;2023-07-31T13:02:41;23.30;99.90
4556;DHT22;2290;48.674;9.018;2023-07-31T13:05:07;23.70;99.90
4556;DHT22;2290;48.674;9.018;2023-07-31T13:07:33;23.90;99.90
4556;DHT22;2290;48.674;9.018;2023-07-31T13:09:59;24.00;99.90
4556;DHT22;2290;48.674;9.018;2023-07-31T13:12:24;23.70;99.90
4556;DHT22;2290;48.674;9.018;2023-07-31T13:14:50;23.60;99.90
4556;DHT22;2290;48.674;9.018;2023-07-31T13:17:16;23.40;99.90
4556;DHT22;2290;48.674;9.018;2023-07-31T13:19:42;23.30;99.90
4556;DHT22;2290;48.674;9.018;2023-07-31T13:22:08;23.20;99.90
4556;DHT22;2290;48.674;9.018;2023-07-31T13:24:33;23.10;99.90
4556;DHT22;2290;48.674;9.018;2023-07-31T13:26:59;22.90;99.90
4556;DHT22;2290;48.674;9.018;2023-07-31T13:29:25;22.70;99.90
4556;DHT22;2290;48.674;9.018;2023-07-31T13:31:52;22.70;99.90
4556;DHT22;2290;48.674;9.018;2023-07-31T13:34:17;22.50;99.90
4556;DHT22;2290;48.674;9.018;2023-07-31T13:36:43;22.50;99.90
4556;DHT22;2290;48.674;9.018;2023-07-31T13:39:09;22.40;99.90
4556;DHT22;2290;48.674;9.018;2023-07-31T13:41:34;22.50;99.90
4556;DHT22;2290;48.674;9.018;2023-07-31T13:44:00;22.50;99.90
4556;DHT22;2290;48.674;9.018;2023-07-31T13:46:25;22.50;99.90
4556;DHT22;2290;48.674;9.018;2023-07-31T13:48:51;22.60;99.90
4556;DHT22;2290;48.674;9.018;2023-07-31T13:51:20;22.70;99.90
4556;DHT22;2290;48.674;9.018;2023-07-31T13:53:45;22.80;99.90
4556;DHT22;2290;48.674;9.018;2023-07-31T13:56:11;22.70;99.90
4556;DHT22;2290;48.674;9.018;2023-07-31T13:58:36;22.70;99.90
4556;DHT22;2290;48.674;9.018;2023-07-31T14:01:02;22.80;99.90
4556;DHT22;2290;48.674;9.018;2023-07-31T14:03:28;22.80;99.90
4556;DHT22;2290;48.674;9.018;2023-07-31T14:05:55;22.80;99.90
4556;DHT22;2290;48.674;9.018;2023-07-31T14:08:21;22.70;99.90
4556;DHT22;2290;48.674;9.018;2023-07-31T14:10:46;22.50;99.90
4556;DHT22;2290;48.674;9.018;2023-07-31T14:13:12;22.50;99.90
4556;DHT22;2290;48.674;9.018;2023-07-31T14:15:37;22.40;99.90
4556;DHT22;2290;48.674;9.018;2023-07-31T14:18:03;22.40;99.90
4556;DHT22;2290;48.674;9.018;2023-07-31T14:20:30;22.20;99.90
4556;DHT22;2290;48.674;9.018;2023-07-31T14:22:55;22.10;99.90
4556;DHT22;2290;48.674;9.018;2023-07-31T14:25:21;21.90;99.90
4556;DHT22;2290;48.674;9.018;2023-07-31T14:27:46;21.90;99.90
4556;DHT22;2290;48.674;9.018;2023-07-31T14:30:12;21.90;99.90
4556;DHT22;2290;48.674;9.018;2023-07-31T14:32:38;21.90;99.90
4556;DHT22;2290;48.674;9.018;2023-07-31T14:35:04;22.00;99.90
4556;DHT22;2290;48.674;9.018;2023-07-31T14:37:40;21.90;99.90
4556;DHT22;2290;48.674;9.018;2023-07-31T14:40:08;22.00;99.90
4556;DHT22;2290;48.674;9.018;2023-07-31T14:42:35;22.10;99.90
4556;DHT22;2290;48.674;9.018;2023-07-31T14:45:01;22.20;99.90
4556;DHT22;2290;48.674;9.018;2023-07-31T14:47:26;22.30;99.90
4556;DHT22;2290;48.674;9.018;2023-07-31T14:49:52;22.30;99.90
4556;DHT22;2290;48.674;9.018;2023-07-31T14:52:18;22.30;99.90
4556;DHT22;2290;48.674;9.018;2023-07-31T14:54:44;22.40;99.90
4556;DHT22;2290;48.674;9.018;2023-07-31T14:57:10;22.40;99.90
4556;DHT22;2290;48.674;9.018;2023-07-31T14:59:35;22.40;99.90
4556;DHT22;2290;48.674;9.018;2023-07-31T15:02:01;22.40;99.90
4556;DHT22;2290;48.674;9.018;2023-07-31T15:04:26;22.40;99.90
4556;DHT22;2290;48.674;9.018;2023-07-31T15:06:52;22.50;99.90
4556;DHT22;2290;48.674;9.018;2023-07-31T15:09:18;22.50;99.90
4556;DHT22;2290;48.674;9.018;2023-07-31T15:11:43;22.50;99.90
4556;DHT22;2290;48.674;9.018;2023-07-31T15:14:09;22.40;99.90
4556;DHT22;2290;48.674;9.018;2023-07-31T15:16:34;22.40;99.90
4556;DHT22;2290;48.674;9.018;2023-07-31T15:19:00;22.40;99.90
4556;DHT22;2290;48.674;9.018;2023-07-31T15:21:26;22.40;99.90
4556;DHT22;2290;48.674;9.018;2023-07-31T15:23:55;22.50;99.90
4556;DHT22;2290;48.674;9.018;2023-07-31T15:26:20;22.60;99.90
4556;DHT22;2290;48.674;9.018;2023-07-31T15:28:55;22.60;99.90
4556;DHT22;2290;48.674;9.018;2023-07-31T15:31:21;22.60;99.90
4556;DHT22;2290;48.674;9.018;2023-07-31T15:33:48;22.60;99.90
4556;DHT22;2290;48.674;9.018;2023-07-31T15:36:13;22.60;99.90
4556;DHT22;2290;48.674;9.018;2023-07-31T15:38:39;22.50;99.90
4556;DHT22;2290;48.674;9.018;2023-07-31T15:41:05;22.60;99.90
4556;DHT22;2290;48.674;9.018;2023-07-31T15:43:31;22.60;99.90
4556;DHT22;2290;48.674;9.018;2023-07-31T15:45:57;22.50;99.90
4556;DHT22;2290;48.674;9.018;2023-07-31T15:48:23;22.50;99.90
4556;DHT22;2290;48.674;9.018;2023-07-31T15:50:48;22.60;99.90
4556;DHT22;2290;48.674;9.018;2023-07-31T15:53:14;22.60;99.90
4556;DHT22;2290;48.674;9.018;2023-07-31T15:55:40;22.50;99.90
4556;DHT22;2290;48.674;9.018;2023-07-31T15:58:05;22.50;99.90
4556;DHT22;2290;48.674;9.018;2023-07-31T16:00:33;22.60;99.90
4556;DHT22;2290;48.674;9.018;2023-07-31T16:02:58;22.70;99.90
4556;DHT22;2290;48.674;9.018;2023-07-31T16:05:24;22.90;99.90
4556;DHT22;2290;48.674;9.018;2023-07-31T16:07:50;23.00;99.90
4556;DHT22;2290;48.674;9.018;2023-07-31T16:10:15;23.20;99.90
4556;DHT22;2290;48.674;9.018;2023-07-31T16:12:41;23.20;99.90